Accedi per prenotare

Caricamento...

Situazione Metar e Taf aeroporto Pisa - Effemeridi Aeroporto Lucca

[Source: ADDS]
METAR
LIRP 240445Z 26004KT 9999 BKN030 11/11 Q1023 NOSIG =
LIRP 232300Z 2400/2424 VRB03KT 9999 BKN030 TEMPO 2402/2408 3000 BR BKN015 BECMG 2409/2412 9999 SCT035
TAF
LIRP 232300Z 2400/2424 VRB03KT 9999 BKN030 TEMPO 2402/2408 3000 BR BKN015 BECMG 2409/2412 9999 SCT035 =
SR / SS: 06:04 / 17:01 UTC (Effemeridi LIQL 2020-02-24)